sensor_id;sensor_type;location;lat;lon;timestamp;temperature;humidity
21340;DHT22;10828;47.064;15.422;2023-04-15T00:00:16;6.50;99.90
21340;DHT22;10828;47.064;15.422;2023-04-15T00:02:48;6.70;99.90
21340;DHT22;10828;47.064;15.422;2023-04-15T00:05:23;6.70;99.90
21340;DHT22;10828;47.064;15.422;2023-04-15T00:07:48;6.60;99.90
21340;DHT22;10828;47.064;15.422;2023-04-15T00:10:15;6.60;99.90
21340;DHT22;10828;47.064;15.422;2023-04-15T00:12:41;6.50;99.90
21340;DHT22;10828;47.064;15.422;2023-04-15T00:15:11;6.50;99.90
21340;DHT22;10828;47.064;15.422;2023-04-15T00:17:44;6.50;99.90
21340;DHT22;10828;47.064;15.422;2023-04-15T00:20:10;6.50;99.90
21340;DHT22;10828;47.064;15.422;2023-04-15T00:22:36;6.50;99.90
21340;DHT22;10828;47.064;15.422;2023-04-15T00:25:04;6.50;99.90
21340;DHT22;10828;47.064;15.422;2023-04-15T00:27:31;6.70;99.90
21340;DHT22;10828;47.064;15.422;2023-04-15T00:29:57;6.70;99.90
21340;DHT22;10828;47.064;15.422;2023-04-15T00:32:23;6.70;99.90
21340;DHT22;10828;47.064;15.422;2023-04-15T00:34:52;6.60;99.90
21340;DHT22;10828;47.064;15.422;2023-04-15T00:37:18;6.70;99.90
21340;DHT22;10828;47.064;15.422;2023-04-15T00:39:51;6.80;99.90
21340;DHT22;10828;47.064;15.422;2023-04-15T00:42:18;6.70;99.90
21340;DHT22;10828;47.064;15.422;2023-04-15T00:44:49;6.60;99.90
21340;DHT22;10828;47.064;15.422;2023-04-15T00:47:18;6.60;99.90
21340;DHT22;10828;47.064;15.422;2023-04-15T00:49:46;6.50;99.90
21340;DHT22;10828;47.064;15.422;2023-04-15T00:52:13;6.50;99.90
21340;DHT22;10828;47.064;15.422;2023-04-15T00:54:45;6.50;99.90
21340;DHT22;10828;47.064;15.422;2023-04-15T00:57:17;6.50;99.90
21340;DHT22;10828;47.064;15.422;2023-04-15T00:59:45;6.50;99.90
21340;DHT22;10828;47.064;15.422;2023-04-15T01:02:15;6.50;99.90
21340;DHT22;10828;47.064;15.422;2023-04-15T01:04:41;6.40;99.90
21340;DHT22;10828;47.064;15.422;2023-04-15T01:07:09;6.50;99.90
21340;DHT22;10828;47.064;15.422;2023-04-15T01:09:36;6.40;99.90
21340;DHT22;10828;47.064;15.422;2023-04-15T01:12:06;6.40;99.90
21340;DHT22;10828;47.064;15.422;2023-04-15T01:14:33;6.50;99.90
21340;DHT22;10828;47.064;15.422;2023-04-15T01:17:01;6.50;99.90
21340;DHT22;10828;47.064;15.422;2023-04-15T01:19:30;6.50;99.90
21340;DHT22;10828;47.064;15.422;2023-04-15T01:21:56;6.50;99.90
21340;DHT22;10828;47.064;15.422;2023-04-15T01:24:33;6.50;99.90
21340;DHT22;10828;47.064;15.422;2023-04-15T01:27:04;6.60;99.90
21340;DHT22;10828;47.064;15.422;2023-04-15T01:29:39;6.60;99.90
21340;DHT22;10828;47.064;15.422;2023-04-15T01:32:06;6.60;99.90
21340;DHT22;10828;47.064;15.422;2023-04-15T01:34:34;6.50;99.90
21340;DHT22;10828;47.064;15.422;2023-04-15T01:37:00;6.50;99.90
21340;DHT22;10828;47.064;15.422;2023-04-15T01:39:26;6.50;99.90
21340;DHT22;10828;47.064;15.422;2023-04-15T01:41:52;6.40;99.90
21340;DHT22;10828;47.064;15.422;2023-04-15T01:44:24;6.40;99.90
21340;DHT22;10828;47.064;15.422;2023-04-15T01:47:10;6.40;99.90
21340;DHT22;10828;47.064;15.422;2023-04-15T01:49:37;6.40;99.90
21340;DHT22;10828;47.064;15.422;2023-04-15T01:52:08;6.40;99.90
21340;DHT22;10828;47.064;15.422;2023-04-15T01:54:34;6.40;99.90
21340;DHT22;10828;47.064;15.422;2023-04-15T01:57:05;6.50;99.90
21340;DHT22;10828;47.064;15.422;2023-04-15T01:59:31;6.70;99.90
21340;DHT22;10828;47.064;15.422;2023-04-15T02:01:56;6.70;99.90
21340;DHT22;10828;47.064;15.422;2023-04-15T02:04:23;6.60;99.90
21340;DHT22;10828;47.064;15.422;2023-04-15T02:06:50;6.50;99.90
21340;DHT22;10828;47.064;15.422;2023-04-15T02:09:17;6.60;99.90
21340;DHT22;10828;47.064;15.422;2023-04-15T02:11:50;6.60;99.90
21340;DHT22;10828;47.064;15.422;2023-04-15T02:14:18;6.60;99.90
21340;DHT22;10828;47.064;15.422;2023-04-15T02:16:48;6.70;99.90
21340;DHT22;10828;47.064;15.422;2023-04-15T02:19:14;6.60;99.90
21340;DHT22;10828;47.064;15.422;2023-04-15T02:21:41;6.70;99.90
21340;DHT22;10828;47.064;15.422;2023-04-15T02:24:18;6.70;99.90
21340;DHT22;10828;47.064;15.422;2023-04-15T02:26:44;6.70;99.90
21340;DHT22;10828;47.064;15.422;2023-04-15T02:29:11;6.70;99.90
21340;DHT22;10828;47.064;15.422;2023-04-15T02:31:38;6.70;99.90
21340;DHT22;10828;47.064;15.422;2023-04-15T02:34:08;6.70;99.90
21340;DHT22;10828;47.064;15.422;2023-04-15T02:36:36;6.70;99.90
21340;DHT22;10828;47.064;15.422;2023-04-15T02:39:07;6.70;99.90
21340;DHT22;10828;47.064;15.422;2023-04-15T02:41:36;6.70;99.90
21340;DHT22;10828;47.064;15.422;2023-04-15T02:44:05;6.70;99.90
21340;DHT22;10828;47.064;15.422;2023-04-15T02:46:35;6.60;99.90
21340;DHT22;10828;47.064;15.422;2023-04-15T02:49:02;6.70;99.90
21340;DHT22;10828;47.064;15.422;2023-04-15T02:51:30;6.70;99.90
21340;DHT22;10828;47.064;15.422;2023-04-15T02:53:56;6.70;99.90
21340;DHT22;10828;47.064;15.422;2023-04-15T02:56:22;6.70;99.90
21340;DHT22;10828;47.064;15.422;2023-04-15T02:58:59;6.70;99.90
21340;DHT22;10828;47.064;15.422;2023-04-15T03:01:27;6.70;99.90
21340;DHT22;10828;47.064;15.422;2023-04-15T03:03:56;6.70;99.90
21340;DHT22;10828;47.064;15.422;2023-04-15T03:06:22;6.70;99.90
21340;DHT22;10828;47.064;15.422;2023-04-15T03:08:49;6.70;99.90
21340;DHT22;10828;47.064;15.422;2023-04-15T03:11:17;6.70;99.90
21340;DHT22;10828;47.064;15.422;2023-04-15T03:17:21;6.70;99.90
21340;DHT22;10828;47.064;15.422;2023-04-15T03:20:16;6.70;99.90
21340;DHT22;10828;47.064;15.422;2023-04-15T03:23:25;6.70;99.90
21340;DHT22;10828;47.064;15.422;2023-04-15T03:25:54;6.70;99.90
21340;DHT22;10828;47.064;15.422;2023-04-15T03:28:23;6.70;99.90
21340;DHT22;10828;47.064;15.422;2023-04-15T03:30:55;6.70;99.90
21340;DHT22;10828;47.064;15.422;2023-04-15T03:33:25;6.70;99.90
21340;DHT22;10828;47.064;15.422;2023-04-15T03:35:55;6.80;99.90
21340;DHT22;10828;47.064;15.422;2023-04-15T03:38:52;6.80;99.90
21340;DHT22;10828;47.064;15.422;2023-04-15T03:41:33;6.80;99.90
21340;DHT22;10828;47.064;15.422;2023-04-15T03:44:00;6.70;99.90
21340;DHT22;10828;47.064;15.422;2023-04-15T03:46:29;6.70;99.90
21340;DHT22;10828;47.064;15.422;2023-04-15T03:49:12;6.70;99.90
21340;DHT22;10828;47.064;15.422;2023-04-15T03:51:47;6.70;99.90
21340;DHT22;10828;47.064;15.422;2023-04-15T03:54:15;6.80;99.90
21340;DHT22;10828;47.064;15.422;2023-04-15T03:57:12;6.80;99.90
21340;DHT22;10828;47.064;15.422;2023-04-15T03:59:52;6.70;99.90
21340;DHT22;10828;47.064;15.422;2023-04-15T04:02:30;6.70;99.90
21340;DHT22;10828;47.064;15.422;2023-04-15T04:04:58;6.70;99.90
21340;DHT22;10828;47.064;15.422;2023-04-15T04:07:30;6.70;99.90
21340;DHT22;10828;47.064;15.422;2023-04-15T04:10:04;6.80;99.90
21340;DHT22;10828;47.064;15.422;2023-04-15T04:12:38;6.80;99.90
21340;DHT22;10828;47.064;15.422;2023-04-15T04:15:07;6.70;99.90
21340;DHT22;10828;47.064;15.422;2023-04-15T04:17:34;6.70;99.90
21340;DHT22;10828;47.064;15.422;2023-04-15T04:20:05;6.70;99.90
21340;DHT22;10828;47.064;15.422;2023-04-15T04:22:39;6.70;99.90
21340;DHT22;10828;47.064;15.422;2023-04-15T04:25:33;6.80;99.90
21340;DHT22;10828;47.064;15.422;2023-04-15T04:28:01;6.80;99.90
21340;DHT22;10828;47.064;15.422;2023-04-15T04:30:29;6.80;99.90
21340;DHT22;10828;47.064;15.422;2023-04-15T04:32:57;6.80;99.90
21340;DHT22;10828;47.064;15.422;2023-04-15T04:35:35;6.80;99.90
21340;DHT22;10828;47.064;15.422;2023-04-15T04:38:11;6.80;99.90
21340;DHT22;10828;47.064;15.422;2023-04-15T04:40:38;6.80;99.90
21340;DHT22;10828;47.064;15.422;2023-04-15T04:43:16;6.80;99.90
21340;DHT22;10828;47.064;15.422;2023-04-15T04:45:43;6.80;99.90
21340;DHT22;10828;47.064;15.422;2023-04-15T04:48:09;6.80;99.90
21340;DHT22;10828;47.064;15.422;2023-04-15T04:50:37;6.80;99.90
21340;DHT22;10828;47.064;15.422;2023-04-15T04:53:03;6.80;99.90
21340;DHT22;10828;47.064;15.422;2023-04-15T04:55:31;6.80;99.90
21340;DHT22;10828;47.064;15.422;2023-04-15T04:58:01;6.80;99.90
21340;DHT22;10828;47.064;15.422;2023-04-15T05:00:31;6.80;99.90
21340;DHT22;10828;47.064;15.422;2023-04-15T05:02:58;6.80;99.90
21340;DHT22;10828;47.064;15.422;2023-04-15T05:05:30;6.80;99.90
21340;DHT22;10828;47.064;15.422;2023-04-15T05:07:58;6.80;99.90
21340;DHT22;10828;47.064;15.422;2023-04-15T05:10:26;6.80;99.90
21340;DHT22;10828;47.064;15.422;2023-04-15T05:13:02;6.90;99.90
21340;DHT22;10828;47.064;15.422;2023-04-15T05:15:32;6.90;99.90
21340;DHT22;10828;47.064;15.422;2023-04-15T05:18:03;6.90;99.90
21340;DHT22;10828;47.064;15.422;2023-04-15T05:20:29;6.90;99.90
21340;DHT22;10828;47.064;15.422;2023-04-15T05:23:00;6.90;99.90
21340;DHT22;10828;47.064;15.422;2023-04-15T05:25:26;6.90;99.90
21340;DHT22;10828;47.064;15.422;2023-04-15T05:27:52;6.90;99.90
21340;DHT22;10828;47.064;15.422;2023-04-15T05:30:18;6.90;99.90
21340;DHT22;10828;47.064;15.422;2023-04-15T05:32:45;6.90;99.90
21340;DHT22;10828;47.064;15.422;2023-04-15T05:35:18;6.90;99.90
21340;DHT22;10828;47.064;15.422;2023-04-15T05:37:44;6.90;99.90
21340;DHT22;10828;47.064;15.422;2023-04-15T05:40:11;6.90;99.90
21340;DHT22;10828;47.064;15.422;2023-04-15T05:42:41;6.90;99.90
21340;DHT22;10828;47.064;15.422;2023-04-15T05:45:07;7.00;99.90
21340;DHT22;10828;47.064;15.422;2023-04-15T05:47:38;7.00;99.90
21340;DHT22;10828;47.064;15.422;2023-04-15T05:50:04;7.00;99.90
21340;DHT22;10828;47.064;15.422;2023-04-15T05:52:36;7.00;99.90
21340;DHT22;10828;47.064;15.422;2023-04-15T05:55:03;7.00;99.90
21340;DHT22;10828;47.064;15.422;2023-04-15T05:57:29;7.00;99.90
21340;DHT22;10828;47.064;15.422;2023-04-15T05:59:58;7.00;99.90
21340;DHT22;10828;47.064;15.422;2023-04-15T06:02:24;7.10;99.90
21340;DHT22;10828;47.064;15.422;2023-04-15T06:04:50;7.10;99.90
21340;DHT22;10828;47.064;15.422;2023-04-15T06:07:17;7.10;99.90
21340;DHT22;10828;47.064;15.422;2023-04-15T06:09:44;7.10;99.90
21340;DHT22;10828;47.064;15.422;2023-04-15T06:12:10;7.10;99.90
21340;DHT22;10828;47.064;15.422;2023-04-15T06:14:39;7.10;99.90
21340;DHT22;10828;47.064;15.422;2023-04-15T06:17:05;7.10;99.90
21340;DHT22;10828;47.064;15.422;2023-04-15T06:19:32;7.20;99.90
21340;DHT22;10828;47.064;15.422;2023-04-15T06:21:59;7.20;99.90
21340;DHT22;10828;47.064;15.422;2023-04-15T06:24:35;7.20;99.90
21340;DHT22;10828;47.064;15.422;2023-04-15T06:27:01;7.20;99.90
21340;DHT22;10828;47.064;15.422;2023-04-15T06:29:28;7.20;99.90
21340;DHT22;10828;47.064;15.422;2023-04-15T06:31:55;7.20;99.90
21340;DHT22;10828;47.064;15.422;2023-04-15T06:34:22;7.20;99.90
21340;DHT22;10828;47.064;15.422;2023-04-15T06:36:48;7.20;99.90
21340;DHT22;10828;47.064;15.422;2023-04-15T06:39:14;7.20;99.90
21340;DHT22;10828;47.064;15.422;2023-04-15T06:41:41;7.20;99.90
21340;DHT22;10828;47.064;15.422;2023-04-15T06:44:10;7.20;99.90
21340;DHT22;10828;47.064;15.422;2023-04-15T06:46:36;7.30;99.90
21340;DHT22;10828;47.064;15.422;2023-04-15T06:49:02;7.30;99.90
21340;DHT22;10828;47.064;15.422;2023-04-15T06:51:31;7.40;99.90
21340;DHT22;10828;47.064;15.422;2023-04-15T06:53:57;7.40;99.90
21340;DHT22;10828;47.064;15.422;2023-04-15T06:56:22;7.40;99.90
21340;DHT22;10828;47.064;15.422;2023-04-15T06:58:49;7.40;99.90
21340;DHT22;10828;47.064;15.422;2023-04-15T07:01:15;7.40;99.90
21340;DHT22;10828;47.064;15.422;2023-04-15T07:03:42;7.40;99.90
21340;DHT22;10828;47.064;15.422;2023-04-15T07:06:08;7.50;99.90
21340;DHT22;10828;47.064;15.422;2023-04-15T07:08:35;7.50;99.90
21340;DHT22;10828;47.064;15.422;2023-04-15T07:11:01;7.50;99.90
21340;DHT22;10828;47.064;15.422;2023-04-15T07:13:30;7.50;99.90
21340;DHT22;10828;47.064;15.422;2023-04-15T07:15:57;7.50;99.90
21340;DHT22;10828;47.064;15.422;2023-04-15T07:18:25;7.50;99.90
21340;DHT22;10828;47.064;15.422;2023-04-15T07:20:53;7.60;99.90
21340;DHT22;10828;47.064;15.422;2023-04-15T07:23:20;7.50;99.90
21340;DHT22;10828;47.064;15.422;2023-04-15T07:25:46;7.60;99.90
21340;DHT22;10828;47.064;15.422;2023-04-15T07:28:17;7.70;99.90
21340;DHT22;10828;47.064;15.422;2023-04-15T07:30:43;7.70;99.90
21340;DHT22;10828;47.064;15.422;2023-04-15T07:33:10;7.70;99.90
21340;DHT22;10828;47.064;15.422;2023-04-15T07:35:36;7.60;99.90
21340;DHT22;10828;47.064;15.422;2023-04-15T07:38:06;7.60;99.90
21340;DHT22;10828;47.064;15.422;2023-04-15T07:40:33;7.60;99.90
21340;DHT22;10828;47.064;15.422;2023-04-15T07:42:59;7.60;99.90
21340;DHT22;10828;47.064;15.422;2023-04-15T07:45:26;7.60;99.90
21340;DHT22;10828;47.064;15.422;2023-04-15T07:47:52;7.60;99.90
21340;DHT22;10828;47.064;15.422;2023-04-15T07:50:19;7.60;99.90
21340;DHT22;10828;47.064;15.422;2023-04-15T07:52:44;7.60;99.90
21340;DHT22;10828;47.064;15.422;2023-04-15T07:55:12;7.60;99.90
21340;DHT22;10828;47.064;15.422;2023-04-15T07:57:38;7.60;99.90
21340;DHT22;10828;47.064;15.422;2023-04-15T08:00:04;7.60;99.90
21340;DHT22;10828;47.064;15.422;2023-04-15T08:02:32;7.60;99.90
21340;DHT22;10828;47.064;15.422;2023-04-15T08:04:58;7.60;99.90
21340;DHT22;10828;47.064;15.422;2023-04-15T08:07:24;7.60;99.90
21340;DHT22;10828;47.064;15.422;2023-04-15T08:09:50;7.80;99.90
21340;DHT22;10828;47.064;15.422;2023-04-15T08:12:15;7.80;99.90
21340;DHT22;10828;47.064;15.422;2023-04-15T08:14:41;7.90;99.90
21340;DHT22;10828;47.064;15.422;2023-04-15T08:17:07;7.90;99.90
21340;DHT22;10828;47.064;15.422;2023-04-15T08:19:33;8.00;99.90
21340;DHT22;10828;47.064;15.422;2023-04-15T08:21:58;8.00;99.90
21340;DHT22;10828;47.064;15.422;2023-04-15T08:24:25;8.00;99.90
21340;DHT22;10828;47.064;15.422;2023-04-15T08:26:51;7.90;99.90
21340;DHT22;10828;47.064;15.422;2023-04-15T08:29:19;8.00;99.90
21340;DHT22;10828;47.064;15.422;2023-04-15T08:31:46;8.00;99.90
21340;DHT22;10828;47.064;15.422;2023-04-15T08:34:12;8.00;99.90
21340;DHT22;10828;47.064;15.422;2023-04-15T08:36:38;8.10;99.90
21340;DHT22;10828;47.064;15.422;2023-04-15T08:39:04;8.10;99.90
21340;DHT22;10828;47.064;15.422;2023-04-15T08:41:38;8.20;99.90
21340;DHT22;10828;47.064;15.422;2023-04-15T08:44:11;8.20;99.90
21340;DHT22;10828;47.064;15.422;2023-04-15T08:46:37;8.10;99.90
21340;DHT22;10828;47.064;15.422;2023-04-15T08:49:04;8.10;99.90
21340;DHT22;10828;47.064;15.422;2023-04-15T08:51:31;8.00;99.90
21340;DHT22;10828;47.064;15.422;2023-04-15T08:53:56;8.00;99.90
21340;DHT22;10828;47.064;15.422;2023-04-15T08:56:24;8.10;99.90
21340;DHT22;10828;47.064;15.422;2023-04-15T08:58:53;8.10;99.90
21340;DHT22;10828;47.064;15.422;2023-04-15T09:01:19;8.00;99.90
21340;DHT22;10828;47.064;15.422;2023-04-15T09:03:47;8.00;99.90
21340;DHT22;10828;47.064;15.422;2023-04-15T09:06:15;8.10;99.90
21340;DHT22;10828;47.064;15.422;2023-04-15T09:08:41;8.20;99.90
21340;DHT22;10828;47.064;15.422;2023-04-15T09:11:07;8.20;99.90
21340;DHT22;10828;47.064;15.422;2023-04-15T09:13:32;8.30;99.90
21340;DHT22;10828;47.064;15.422;2023-04-15T09:16:01;8.40;99.90
21340;DHT22;10828;47.064;15.422;2023-04-15T09:18:30;8.50;99.90
21340;DHT22;10828;47.064;15.422;2023-04-15T09:21:13;8.50;99.90
21340;DHT22;10828;47.064;15.422;2023-04-15T09:24:02;8.50;99.90
21340;DHT22;10828;47.064;15.422;2023-04-15T09:26:34;8.60;99.90
21340;DHT22;10828;47.064;15.422;2023-04-15T09:29:08;8.50;99.90
21340;DHT22;10828;47.064;15.422;2023-04-15T09:31:40;8.60;99.90
21340;DHT22;10828;47.064;15.422;2023-04-15T09:34:09;8.50;99.90
21340;DHT22;10828;47.064;15.422;2023-04-15T09:36:52;8.60;99.90
21340;DHT22;10828;47.064;15.422;2023-04-15T09:39:21;8.50;99.90
21340;DHT22;10828;47.064;15.422;2023-04-15T09:42:08;8.50;99.90
21340;DHT22;10828;47.064;15.422;2023-04-15T09:44:34;8.50;99.90
21340;DHT22;10828;47.064;15.422;2023-04-15T09:47:06;8.50;99.90
21340;DHT22;10828;47.064;15.422;2023-04-15T09:49:33;8.70;99.90
21340;DHT22;10828;47.064;15.422;2023-04-15T09:52:00;8.70;99.90
21340;DHT22;10828;47.064;15.422;2023-04-15T09:54:37;8.80;99.90
21340;DHT22;10828;47.064;15.422;2023-04-15T09:57:08;8.80;99.90
21340;DHT22;10828;47.064;15.422;2023-04-15T09:59:34;8.80;99.90
21340;DHT22;10828;47.064;15.422;2023-04-15T10:02:04;8.90;99.90
21340;DHT22;10828;47.064;15.422;2023-04-15T10:04:35;8.90;99.90
21340;DHT22;10828;47.064;15.422;2023-04-15T10:07:04;8.90;99.90
21340;DHT22;10828;47.064;15.422;2023-04-15T10:09:31;9.00;99.90
21340;DHT22;10828;47.064;15.422;2023-04-15T10:12:04;9.00;99.90
21340;DHT22;10828;47.064;15.422;2023-04-15T10:14:37;9.00;99.90
21340;DHT22;10828;47.064;15.422;2023-04-15T10:17:07;9.00;99.90
21340;DHT22;10828;47.064;15.422;2023-04-15T10:19:36;9.10;99.90
21340;DHT22;10828;47.064;15.422;2023-04-15T10:22:05;9.20;99.90
21340;DHT22;10828;47.064;15.422;2023-04-15T10:24:32;9.10;99.90
21340;DHT22;10828;47.064;15.422;2023-04-15T10:27:03;9.00;99.90
21340;DHT22;10828;47.064;15.422;2023-04-15T10:29:39;9.10;99.90
21340;DHT22;10828;47.064;15.422;2023-04-15T10:32:05;9.10;99.90
21340;DHT22;10828;47.064;15.422;2023-04-15T10:34:32;9.10;99.90
21340;DHT22;10828;47.064;15.422;2023-04-15T10:37:01;9.20;99.90
21340;DHT22;10828;47.064;15.422;2023-04-15T10:42:14;9.30;99.90
21340;DHT22;10828;47.064;15.422;2023-04-15T10:44:49;9.30;99.90
21340;DHT22;10828;47.064;15.422;2023-04-15T10:47:18;9.40;99.90
21340;DHT22;10828;47.064;15.422;2023-04-15T10:49:50;9.40;99.90
21340;DHT22;10828;47.064;15.422;2023-04-15T10:52:22;9.40;99.90
21340;DHT22;10828;47.064;15.422;2023-04-15T10:54:48;9.40;99.90
21340;DHT22;10828;47.064;15.422;2023-04-15T10:57:20;9.40;99.90
21340;DHT22;10828;47.064;15.422;2023-04-15T11:00:02;9.40;99.90
21340;DHT22;10828;47.064;15.422;2023-04-15T11:02:40;9.50;99.90
21340;DHT22;10828;47.064;15.422;2023-04-15T11:05:09;9.60;99.90
21340;DHT22;10828;47.064;15.422;2023-04-15T11:10:49;9.60;99.90
21340;DHT22;10828;47.064;15.422;2023-04-15T11:13:17;9.60;99.90
21340;DHT22;10828;47.064;15.422;2023-04-15T11:15:47;9.50;99.90
21340;DHT22;10828;47.064;15.422;2023-04-15T11:18:24;9.40;99.90
21340;DHT22;10828;47.064;15.422;2023-04-15T11:21:03;9.40;99.90
21340;DHT22;10828;47.064;15.422;2023-04-15T11:23:36;9.50;99.90
21340;DHT22;10828;47.064;15.422;2023-04-15T11:26:05;9.50;99.90
21340;DHT22;10828;47.064;15.422;2023-04-15T11:28:33;9.50;99.90
21340;DHT22;10828;47.064;15.422;2023-04-15T11:31:09;9.50;99.90
21340;DHT22;10828;47.064;15.422;2023-04-15T11:33:45;9.50;99.90
21340;DHT22;10828;47.064;15.422;2023-04-15T11:36:11;9.50;99.90
21340;DHT22;10828;47.064;15.422;2023-04-15T11:38:41;9.50;99.90
21340;DHT22;10828;47.064;15.422;2023-04-15T11:41:07;9.50;99.90
21340;DHT22;10828;47.064;15.422;2023-04-15T11:43:33;9.50;99.90
21340;DHT22;10828;47.064;15.422;2023-04-15T11:46:01;9.60;99.90
21340;DHT22;10828;47.064;15.422;2023-04-15T11:48:33;9.60;99.90
21340;DHT22;10828;47.064;15.422;2023-04-15T11:51:06;9.70;99.90
21340;DHT22;10828;47.064;15.422;2023-04-15T11:53:47;9.80;99.90
21340;DHT22;10828;47.064;15.422;2023-04-15T11:56:18;9.80;99.90
21340;DHT22;10828;47.064;15.422;2023-04-15T11:58:44;9.70;99.90
21340;DHT22;10828;47.064;15.422;2023-04-15T12:01:10;9.60;99.90
21340;DHT22;10828;47.064;15.422;2023-04-15T12:03:44;9.70;99.90
21340;DHT22;10828;47.064;15.422;2023-04-15T12:06:19;9.80;99.90
21340;DHT22;10828;47.064;15.422;2023-04-15T12:11:32;9.90;99.90
21340;DHT22;10828;47.064;15.422;2023-04-15T12:14:06;9.80;99.90
21340;DHT22;10828;47.064;15.422;2023-04-15T12:16:37;9.90;99.90
21340;DHT22;10828;47.064;15.422;2023-04-15T12:19:15;9.80;99.90
21340;DHT22;10828;47.064;15.422;2023-04-15T12:21:44;9.90;99.90
21340;DHT22;10828;47.064;15.422;2023-04-15T12:24:10;10.00;99.90
21340;DHT22;10828;47.064;15.422;2023-04-15T12:26:54;9.90;99.90
21340;DHT22;10828;47.064;15.422;2023-04-15T12:29:26;9.80;99.90
21340;DHT22;10828;47.064;15.422;2023-04-15T12:31:56;9.80;99.90
21340;DHT22;10828;47.064;15.422;2023-04-15T12:36:58;10.00;99.90
21340;DHT22;10828;47.064;15.422;2023-04-15T12:39:26;10.10;99.90
21340;DHT22;10828;47.064;15.422;2023-04-15T12:41:54;10.10;99.90
21340;DHT22;10828;47.064;15.422;2023-04-15T12:44:24;10.10;99.90
21340;DHT22;10828;47.064;15.422;2023-04-15T12:46:50;10.20;99.90
21340;DHT22;10828;47.064;15.422;2023-04-15T12:49:20;10.30;99.90
21340;DHT22;10828;47.064;15.422;2023-04-15T12:51:51;10.40;99.90
21340;DHT22;10828;47.064;15.422;2023-04-15T12:54:18;10.50;99.90
21340;DHT22;10828;47.064;15.422;2023-04-15T12:56:48;10.60;99.90
21340;DHT22;10828;47.064;15.422;2023-04-15T12:59:15;10.60;99.90
21340;DHT22;10828;47.064;15.422;2023-04-15T13:01:42;10.60;99.90
21340;DHT22;10828;47.064;15.422;2023-04-15T13:04:10;10.70;99.90
21340;DHT22;10828;47.064;15.422;2023-04-15T13:06:36;10.70;99.90
21340;DHT22;10828;47.064;15.422;2023-04-15T13:09:03;10.70;99.90
21340;DHT22;10828;47.064;15.422;2023-04-15T13:11:29;10.70;99.90
21340;DHT22;10828;47.064;15.422;2023-04-15T13:13:56;10.80;99.90
21340;DHT22;10828;47.064;15.422;2023-04-15T13:16:24;10.90;99.90
21340;DHT22;10828;47.064;15.422;2023-04-15T13:18:50;10.90;99.90
21340;DHT22;10828;47.064;15.422;2023-04-15T13:21:19;10.90;99.90
21340;DHT22;10828;47.064;15.422;2023-04-15T13:23:45;10.90;99.90
21340;DHT22;10828;47.064;15.422;2023-04-15T13:26:13;10.90;99.90
21340;DHT22;10828;47.064;15.422;2023-04-15T13:28:45;11.00;99.90
21340;DHT22;10828;47.064;15.422;2023-04-15T13:31:12;11.00;99.90
21340;DHT22;10828;47.064;15.422;2023-04-15T13:33:38;11.10;99.90
21340;DHT22;10828;47.064;15.422;2023-04-15T13:36:07;11.10;99.90
21340;DHT22;10828;47.064;15.422;2023-04-15T13:38:35;11.10;99.90
21340;DHT22;10828;47.064;15.422;2023-04-15T13:41:02;11.00;99.90
21340;DHT22;10828;47.064;15.422;2023-04-15T13:43:29;11.00;99.90
21340;DHT22;10828;47.064;15.422;2023-04-15T13:45:56;11.00;99.90
21340;DHT22;10828;47.064;15.422;2023-04-15T13:48:22;11.20;99.90
21340;DHT22;10828;47.064;15.422;2023-04-15T13:50:55;11.10;99.90
21340;DHT22;10828;47.064;15.422;2023-04-15T13:53:23;10.90;99.90
21340;DHT22;10828;47.064;15.422;2023-04-15T13:55:49;10.30;99.90
21340;DHT22;10828;47.064;15.422;2023-04-15T13:58:17;9.80;99.90
21340;DHT22;10828;47.064;15.422;2023-04-15T14:00:42;9.70;99.90
21340;DHT22;10828;47.064;15.422;2023-04-15T14:03:12;9.60;99.90
21340;DHT22;10828;47.064;15.422;2023-04-15T14:05:40;9.60;99.90
21340;DHT22;10828;47.064;15.422;2023-04-15T14:08:07;9.60;99.90
21340;DHT22;10828;47.064;15.422;2023-04-15T14:10:34;9.70;99.90
21340;DHT22;10828;47.064;15.422;2023-04-15T14:13:08;9.80;99.90
21340;DHT22;10828;47.064;15.422;2023-04-15T14:15:36;9.80;99.90
21340;DHT22;10828;47.064;15.422;2023-04-15T14:18:03;9.80;99.90
21340;DHT22;10828;47.064;15.422;2023-04-15T14:20:29;9.90;99.90
21340;DHT22;10828;47.064;15.422;2023-04-15T14:22:57;9.90;99.90
21340;DHT22;10828;47.064;15.422;2023-04-15T14:25:23;10.00;99.90
21340;DHT22;10828;47.064;15.422;2023-04-15T14:27:49;10.00;99.90
21340;DHT22;10828;47.064;15.422;2023-04-15T14:30:18;10.10;99.90
21340;DHT22;10828;47.064;15.422;2023-04-15T14:32:47;10.10;99.90
21340;DHT22;10828;47.064;15.422;2023-04-15T14:35:12;10.20;99.90
21340;DHT22;10828;47.064;15.422;2023-04-15T14:37:39;10.10;99.90
21340;DHT22;10828;47.064;15.422;2023-04-15T14:40:12;10.20;99.90
21340;DHT22;10828;47.064;15.422;2023-04-15T14:42:40;10.10;99.90
21340;DHT22;10828;47.064;15.422;2023-04-15T14:45:08;10.10;99.90
21340;DHT22;10828;47.064;15.422;2023-04-15T14:47:34;10.10;99.90
21340;DHT22;10828;47.064;15.422;2023-04-15T14:50:00;10.10;99.90
21340;DHT22;10828;47.064;15.422;2023-04-15T14:52:26;10.10;99.90
21340;DHT22;10828;47.064;15.422;2023-04-15T14:54:52;10.10;99.90
21340;DHT22;10828;47.064;15.422;2023-04-15T14:57:19;10.10;99.90
21340;DHT22;10828;47.064;15.422;2023-04-15T14:59:46;10.10;99.90
21340;DHT22;10828;47.064;15.422;2023-04-15T15:02:13;10.10;99.90
21340;DHT22;10828;47.064;15.422;2023-04-15T15:04:38;10.10;99.90
21340;DHT22;10828;47.064;15.422;2023-04-15T15:07:05;10.10;99.90
21340;DHT22;10828;47.064;15.422;2023-04-15T15:09:30;10.10;99.90
21340;DHT22;10828;47.064;15.422;2023-04-15T15:11:56;10.10;99.90
21340;DHT22;10828;47.064;15.422;2023-04-15T15:14:22;10.20;99.90
21340;DHT22;10828;47.064;15.422;2023-04-15T15:16:49;10.20;99.90
21340;DHT22;10828;47.064;15.422;2023-04-15T15:19:15;10.20;99.90
21340;DHT22;10828;47.064;15.422;2023-04-15T15:21:41;10.30;99.90
21340;DHT22;10828;47.064;15.422;2023-04-15T15:24:18;10.30;99.90
21340;DHT22;10828;47.064;15.422;2023-04-15T15:26:45;10.30;99.90
21340;DHT22;10828;47.064;15.422;2023-04-15T18:10:21;9.20;99.90
21340;DHT22;10828;47.064;15.422;2023-04-15T18:12:49;9.20;99.90
21340;DHT22;10828;47.064;15.422;2023-04-15T18:15:36;9.30;99.90
21340;DHT22;10828;47.064;15.422;2023-04-15T20:14:43;8.00;99.90
21340;DHT22;10828;47.064;15.422;2023-04-15T20:17:26;8.00;99.90
21340;DHT22;10828;47.064;15.422;2023-04-15T20:19:53;8.00;99.90
21340;DHT22;10828;47.064;15.422;2023-04-15T20:22:20;8.00;99.90
21340;DHT22;10828;47.064;15.422;2023-04-15T20:24:48;7.90;99.90
21340;DHT22;10828;47.064;15.422;2023-04-15T20:27:26;8.00;99.90
21340;DHT22;10828;47.064;15.422;2023-04-15T20:29:56;8.10;99.90
21340;DHT22;10828;47.064;15.422;2023-04-15T20:32:33;8.10;99.90